This is the latest recevied weather packets stored in our database for station/object DM0MR. If no packets are shown the sender has not sent any weather packets the latest 10 day(s).
| Time | Temp. | Humidity | Pressure | Rain* | Wind** | Luminosity | Snow |
|---|---|---|---|---|---|---|---|
| 1777618591 | 17.78° C | 47% | 1020 hPa | 0 mm | - | - | - |
| 1777617692 | 16.67° C | 50% | 1019.9 hPa | 0 mm | - | - | - |
| 1777616792 | 16.11° C | 53% | 1019.8 hPa | 0 mm | - | - | - |
| 1777615892 | 15° C | 59% | 1019.9 hPa | 0 mm | - | - | - |
| 1777614990 | 13.89° C | 65% | 1019.8 hPa | 0 mm | - | - | - |
| 1777614092 | 11.11° C | 76% | 1019.9 hPa | 0 mm | - | - | - |
| 1777613193 | 7.22° C | 86% | 1019.9 hPa | 0 mm | - | - | - |
| 1777612290 | 5° C | 89% | 1019.6 hPa | 0 mm | - | - | - |
| 1777611391 | 4.44° C | 89% | 1019.6 hPa | 0 mm | - | - | - |
| 1777609591 | 3.89° C | 90% | 1019.5 hPa | 0 mm | - | - | - |
| 1777608692 | 3.33° C | 90% | 1019.4 hPa | 0 mm | - | - | - |
| 1777606891 | 3.33° C | 89% | 1019.3 hPa | 0 mm | - | - | - |
| 1777603292 | 3.33° C | 87% | 1019.5 hPa | 0 mm | - | - | - |
| 1777602392 | 3.33° C | 87% | 1019.4 hPa | 0 mm | - | - | - |
| 1777601490 | 3.89° C | 87% | 1019.4 hPa | 0 mm | - | - | - |
| 1777600591 | 3.89° C | 87% | 1019.3 hPa | 0 mm | - | - | - |
| 1777597890 | 4.44° C | 84% | 1019.5 hPa | 0 mm | - | - | - |
| 1777595190 | 5.56° C | 80% | 1019.4 hPa | 0 mm | - | - | - |
| 1777594292 | 5.56° C | 80% | 1019.3 hPa | 0 mm | - | - | - |
| 1777593391 | 5.56° C | 79% | 1019.3 hPa | 0 mm | - | - | - |
| 1777590692 | 6.11° C | 77% | 1019.3 hPa | 0 mm | - | - | - |
| 1777589790 | 6.11° C | 76% | 1019.5 hPa | 0 mm | - | - | - |
| 1777588890 | 6.67° C | 76% | 1019.6 hPa | 0 mm | - | - | - |
| 1777587991 | 6.67° C | 75% | 1019.6 hPa | 0 mm | - | - | - |
| 1777587090 | 7.22° C | 74% | 1019.6 hPa | 0 mm | - | - | - |
* Rain latest hour (hover to see other rain measurements)
** Current wind speed in m/s (hover to see current wind gust speed)